Terminal Aerodrome Forecast
Issued by NWS

Home | Current Version | Previous Version | Text Only | Print | Product List | Glossary On
Versions: 1 2 3 4 5 6 7 8 9 10 11 12 13
570
FTUS46 KPDT 281120
TAFBDN
TAF
KBDN 281120Z 2812/2912 21005KT P6SM SCT250
     FM282100 35009KT P6SM SCT090 BKN250
     FM290800 21004KT P6SM SCT080=

USA.gov is the U.S. government's official web portal to all federal, state and local government web resources and services.